createdAt,value
2022-09-23T00:00:36.937Z,1010.78
2022-09-23T00:01:37.011Z,1010.80
2022-09-23T00:02:36.879Z,1010.76
2022-09-23T00:03:36.827Z,1010.76
2022-09-23T00:04:36.815Z,1010.77
2022-09-23T00:05:37.183Z,1010.79
2022-09-23T00:06:36.802Z,1010.76
2022-09-23T00:07:36.812Z,1010.77
2022-09-23T00:08:36.783Z,1010.78
2022-09-23T00:09:36.766Z,1010.75
2022-09-23T00:10:36.753Z,1010.73
2022-09-23T00:11:36.746Z,1010.72
2022-09-23T00:12:36.744Z,1010.74
2022-09-23T00:13:36.733Z,1010.70
2022-09-23T00:14:36.729Z,1010.71
2022-09-23T00:15:36.727Z,1010.74
2022-09-23T00:16:36.776Z,1010.70
2022-09-23T00:17:36.695Z,1010.70
2022-09-23T00:18:36.669Z,1010.69
2022-09-23T00:19:36.666Z,1010.66
2022-09-23T00:20:36.646Z,1010.69
2022-09-23T00:21:36.634Z,1010.67
2022-09-23T00:22:36.628Z,1010.64
2022-09-23T00:23:36.623Z,1010.64
2022-09-23T00:24:36.605Z,1010.64
2022-09-23T00:25:36.607Z,1010.65
2022-09-23T00:26:36.584Z,1010.65
2022-09-23T00:27:36.569Z,1010.63
2022-09-23T00:28:36.560Z,1010.60
2022-09-23T00:29:36.550Z,1010.62
2022-09-23T00:30:36.582Z,1010.59
2022-09-23T00:31:36.544Z,1010.58
2022-09-23T00:32:36.521Z,1010.62
2022-09-23T00:33:36.513Z,1010.59
2022-09-23T00:34:36.515Z,1010.62
2022-09-23T00:35:36.493Z,1010.63
2022-09-23T00:36:36.525Z,1010.61
2022-09-23T00:37:36.460Z,1010.58
2022-09-23T00:38:36.453Z,1010.57
2022-09-23T00:39:36.447Z,1010.57
2022-09-23T00:40:36.499Z,1010.60
2022-09-23T00:41:36.428Z,1010.57
2022-09-23T00:42:36.402Z,1010.59
2022-09-23T00:43:36.417Z,1010.57
2022-09-23T00:44:36.403Z,1010.56
2022-09-23T00:45:36.421Z,1010.55
2022-09-23T00:46:36.376Z,1010.53
2022-09-23T00:47:36.369Z,1010.54
2022-09-23T00:48:36.353Z,1010.52
2022-09-23T00:49:36.342Z,1010.49
2022-09-23T00:50:36.331Z,1010.48
2022-09-23T00:51:36.369Z,1010.49
2022-09-23T00:52:36.303Z,1010.50
2022-09-23T00:53:36.305Z,1010.46
2022-09-23T00:54:36.278Z,1010.49
2022-09-23T00:55:36.275Z,1010.52
2022-09-23T00:56:36.266Z,1010.50
2022-09-23T00:57:36.253Z,1010.45
2022-09-23T00:58:36.228Z,1010.47
2022-09-23T00:59:36.237Z,1010.48
2022-09-23T01:00:36.236Z,1010.42
2022-09-23T01:01:36.340Z,1010.40
2022-09-23T01:02:36.211Z,1010.39
2022-09-23T01:03:36.184Z,1010.36
2022-09-23T01:04:36.181Z,1010.39
2022-09-23T01:05:36.171Z,1010.39
2022-09-23T01:06:36.163Z,1010.40
2022-09-23T01:07:36.360Z,1010.37
2022-09-23T01:08:36.133Z,1010.35
2022-09-23T01:09:36.126Z,1010.34
2022-09-23T01:10:36.106Z,1010.35
2022-09-23T01:11:36.127Z,1010.30
2022-09-23T01:12:36.093Z,1010.32
2022-09-23T01:13:36.081Z,1010.36
2022-09-23T01:14:36.072Z,1010.34
2022-09-23T01:15:36.058Z,1010.35
2022-09-23T01:16:36.076Z,1010.33
2022-09-23T01:17:36.332Z,1010.32
2022-09-23T01:18:36.030Z,1010.32
2022-09-23T01:19:36.026Z,1010.33
2022-09-23T01:20:35.999Z,1010.28
2022-09-23T01:21:35.989Z,1010.30
2022-09-23T01:22:35.975Z,1010.28
2022-09-23T01:23:35.976Z,1010.28
2022-09-23T01:24:35.957Z,1010.28
2022-09-23T01:25:35.949Z,1010.28
2022-09-23T01:26:35.939Z,1010.27
2022-09-23T01:27:35.926Z,1010.25
2022-09-23T01:28:35.917Z,1010.25
2022-09-23T01:29:35.908Z,1010.27
2022-09-23T01:30:35.942Z,1010.27
2022-09-23T01:31:35.891Z,1010.24
2022-09-23T01:32:35.870Z,1010.27
2022-09-23T01:33:35.861Z,1010.25
2022-09-23T01:34:35.847Z,1010.22
2022-09-23T01:35:35.839Z,1010.16
2022-09-23T01:36:35.837Z,1010.16
2022-09-23T01:37:35.821Z,1010.12
2022-09-23T01:38:35.812Z,1010.14
2022-09-23T01:39:35.810Z,1010.15
2022-09-23T01:40:35.892Z,1010.12
2022-09-23T01:41:35.786Z,1010.08
2022-09-23T01:42:35.768Z,1010.08
2022-09-23T01:43:35.769Z,1010.09
2022-09-23T01:44:35.759Z,1010.07
2022-09-23T01:45:35.740Z,1010.08
2022-09-23T01:46:35.726Z,1010.07
2022-09-23T01:47:35.722Z,1010.07
2022-09-23T01:48:35.799Z,1010.08
2022-09-23T01:49:35.693Z,1010.03
2022-09-23T01:50:35.706Z,1010.02
2022-09-23T01:51:35.687Z,1010.02
2022-09-23T01:52:35.648Z,1010.02
2022-09-23T01:53:35.649Z,1010.01
2022-09-23T01:54:35.640Z,1009.99
2022-09-23T01:55:35.637Z,1009.99
2022-09-23T01:56:35.607Z,1009.94
2022-09-23T01:57:35.603Z,1009.98
2022-09-23T01:58:35.590Z,1009.92
2022-09-23T01:59:35.577Z,1009.92
2022-09-23T02:00:35.578Z,1009.90
2022-09-23T02:01:35.632Z,1009.91
2022-09-23T02:02:35.584Z,1009.89
2022-09-23T02:03:35.535Z,1009.90
2022-09-23T02:04:35.531Z,1009.96
2022-09-23T02:05:35.518Z,1009.94
2022-09-23T02:06:35.514Z,1009.92
2022-09-23T02:07:35.512Z,1009.94
2022-09-23T02:08:36.547Z,1009.96
2022-09-23T02:09:35.477Z,1009.91
2022-09-23T02:10:35.468Z,1009.93
2022-09-23T02:11:35.464Z,1009.90
2022-09-23T02:12:35.440Z,1009.93
2022-09-23T02:13:35.436Z,1009.96
2022-09-23T02:14:35.437Z,1009.91
2022-09-23T02:15:35.429Z,1009.93
2022-09-23T02:16:35.424Z,1009.93
2022-09-23T02:17:35.386Z,1009.92
2022-09-23T02:18:35.376Z,1009.91
2022-09-23T02:19:35.376Z,1009.91
2022-09-23T02:20:35.368Z,1009.93
2022-09-23T02:21:35.335Z,1009.94
2022-09-23T02:22:35.513Z,1009.93
2022-09-23T02:23:35.331Z,1009.92
2022-09-23T02:24:35.319Z,1009.91
2022-09-23T02:25:35.308Z,1009.87
2022-09-23T02:26:35.305Z,1009.89
2022-09-23T02:27:35.296Z,1009.87
2022-09-23T02:28:35.273Z,1009.87
2022-09-23T02:29:35.265Z,1009.89
2022-09-23T02:30:35.255Z,1009.87
2022-09-23T02:31:35.312Z,1009.87
2022-09-23T02:32:35.232Z,1009.87
2022-09-23T02:33:35.228Z,1009.86
2022-09-23T02:34:35.204Z,1009.89
2022-09-23T02:35:35.224Z,1009.88
2022-09-23T02:36:35.187Z,1009.85
2022-09-23T02:37:35.189Z,1009.87
2022-09-23T02:38:35.163Z,1009.87
2022-09-23T02:39:35.201Z,1009.81
2022-09-23T02:40:35.235Z,1009.83
2022-09-23T02:41:35.143Z,1009.82
2022-09-23T02:42:35.123Z,1009.78
2022-09-23T02:43:35.119Z,1009.82
2022-09-23T02:44:35.109Z,1009.81
2022-09-23T02:45:35.129Z,1009.82
2022-09-23T02:46:35.082Z,1009.85
2022-09-23T02:47:35.074Z,1009.82
2022-09-23T02:48:35.065Z,1009.85
2022-09-23T02:49:35.056Z,1009.86
2022-09-23T02:50:35.052Z,1009.83
2022-09-23T02:51:35.028Z,1009.83
2022-09-23T02:52:35.025Z,1009.82
2022-09-23T02:53:35.034Z,1009.81
2022-09-23T02:54:35.012Z,1009.79
2022-09-23T02:55:34.994Z,1009.85
2022-09-23T02:56:35.029Z,1009.80
2022-09-23T02:57:34.965Z,1009.79
2022-09-23T02:58:34.961Z,1009.82
2022-09-23T02:59:34.947Z,1009.79
2022-09-23T03:00:34.933Z,1009.82
2022-09-23T03:01:34.973Z,1009.82
2022-09-23T03:02:34.938Z,1009.84
2022-09-23T03:03:34.901Z,1009.84
2022-09-23T03:04:34.887Z,1009.79
2022-09-23T03:05:34.984Z,1009.76
2022-09-23T03:06:34.864Z,1009.78
2022-09-23T03:07:34.855Z,1009.76
2022-09-23T03:08:34.852Z,1009.76
2022-09-23T03:09:34.839Z,1009.75
2022-09-23T03:10:35.010Z,1009.72
2022-09-23T03:11:34.821Z,1009.68
2022-09-23T03:12:34.801Z,1009.68
2022-09-23T03:13:34.802Z,1009.72
2022-09-23T03:14:34.783Z,1009.66
2022-09-23T03:15:34.786Z,1009.61
2022-09-23T03:16:34.804Z,1009.64
2022-09-23T03:17:34.756Z,1009.64
2022-09-23T03:18:34.760Z,1009.59
2022-09-23T03:19:34.736Z,1009.65
2022-09-23T03:20:34.716Z,1009.62
2022-09-23T03:21:34.716Z,1009.59
2022-09-23T03:22:34.704Z,1009.58
2022-09-23T03:23:34.699Z,1009.53
2022-09-23T03:24:34.674Z,1009.50
2022-09-23T03:25:34.672Z,1009.54
2022-09-23T03:26:34.659Z,1009.59
2022-09-23T03:27:34.652Z,1009.56
2022-09-23T03:28:34.639Z,1009.62
2022-09-23T03:29:34.621Z,1009.58
2022-09-23T03:30:34.728Z,1009.57
2022-09-23T03:31:34.650Z,1009.59
2022-09-23T03:32:34.578Z,1009.55
2022-09-23T03:33:34.579Z,1009.63
2022-09-23T03:34:34.959Z,1009.57
2022-09-23T03:35:34.561Z,1009.57
2022-09-23T03:36:34.558Z,1009.54
2022-09-23T03:37:34.564Z,1009.55
2022-09-23T03:38:34.525Z,1009.47
2022-09-23T03:39:34.526Z,1009.46
2022-09-23T03:40:34.596Z,1009.50
2022-09-23T03:41:34.534Z,1009.50
2022-09-23T03:42:34.480Z,1009.48
2022-09-23T03:43:38.664Z,1009.45
2022-09-23T03:44:34.462Z,1009.46
2022-09-23T03:45:34.529Z,1009.43
2022-09-23T03:46:34.444Z,1009.46
2022-09-23T03:47:34.435Z,1009.41
2022-09-23T03:48:34.432Z,1009.44
2022-09-23T03:49:34.422Z,1009.43
2022-09-23T03:50:34.403Z,1009.43
2022-09-23T03:51:34.380Z,1009.44
2022-09-23T03:52:34.378Z,1009.47
2022-09-23T03:53:34.377Z,1009.43
2022-09-23T03:54:34.363Z,1009.43
2022-09-23T03:55:34.359Z,1009.38
2022-09-23T03:56:34.335Z,1009.36
2022-09-23T03:57:34.331Z,1009.40
2022-09-23T03:58:34.312Z,1009.36
2022-09-23T03:59:34.304Z,1009.33
2022-09-23T04:00:34.339Z,1009.31
2022-09-23T04:01:34.281Z,1009.30
2022-09-23T04:02:34.321Z,1009.31
2022-09-23T04:03:34.260Z,1009.27
2022-09-23T04:04:34.250Z,1009.23
2022-09-23T04:05:34.241Z,1009.26
2022-09-23T04:06:34.237Z,1009.24
2022-09-23T04:07:34.216Z,1009.19
2022-09-23T04:08:34.211Z,1009.19
2022-09-23T04:09:34.194Z,1009.21
2022-09-23T04:10:34.206Z,1009.19
2022-09-23T04:11:34.179Z,1009.19
2022-09-23T04:12:34.361Z,1009.15
2022-09-23T04:13:34.157Z,1009.14
2022-09-23T04:14:34.150Z,1009.14
2022-09-23T04:15:34.121Z,1009.10
2022-09-23T04:16:34.143Z,1009.11
2022-09-23T04:17:34.098Z,1009.13
2022-09-23T04:18:34.100Z,1009.17
2022-09-23T04:19:34.081Z,1009.17
2022-09-23T04:20:34.098Z,1009.18
2022-09-23T04:21:34.060Z,1009.20
2022-09-23T04:22:34.068Z,1009.14
2022-09-23T04:23:34.039Z,1009.15
2022-09-23T04:24:34.032Z,1009.08
2022-09-23T04:25:34.012Z,1009.03
2022-09-23T04:26:34.018Z,1009.06
2022-09-23T04:27:37.629Z,1009.06
2022-09-23T04:28:33.995Z,1008.97
2022-09-23T04:29:33.966Z,1008.98
2022-09-23T04:30:33.967Z,1008.95
2022-09-23T04:31:34.007Z,1008.97
2022-09-23T04:32:33.945Z,1008.99
2022-09-23T04:33:33.927Z,1008.98
2022-09-23T04:34:33.927Z,1008.99
2022-09-23T04:35:36.690Z,1009.01
2022-09-23T04:36:35.361Z,1008.95
2022-09-23T04:37:33.901Z,1008.99
2022-09-23T04:38:33.887Z,1008.96
2022-09-23T04:39:33.873Z,1008.99
2022-09-23T04:40:34.034Z,1008.95
2022-09-23T04:41:33.853Z,1008.94
2022-09-23T04:42:33.856Z,1008.94
2022-09-23T04:43:33.828Z,1008.91
2022-09-23T04:44:33.819Z,1008.94
2022-09-23T04:45:33.991Z,1008.95
2022-09-23T04:46:33.843Z,1008.91
2022-09-23T04:47:33.786Z,1008.89
2022-09-23T04:48:33.773Z,1008.91
2022-09-23T04:49:33.776Z,1008.95
2022-09-23T04:50:33.817Z,1008.98
2022-09-23T04:51:33.747Z,1008.94
2022-09-23T04:52:33.747Z,1008.94
2022-09-23T04:53:33.713Z,1008.92
2022-09-23T04:54:33.710Z,1008.94
2022-09-23T04:55:33.703Z,1008.93
2022-09-23T04:56:33.701Z,1008.95
2022-09-23T04:57:33.677Z,1008.95
2022-09-23T04:58:33.686Z,1008.95
2022-09-23T04:59:33.659Z,1008.95
2022-09-23T05:00:33.676Z,1008.91
2022-09-23T05:01:33.804Z,1008.93
2022-09-23T05:02:33.673Z,1008.93
2022-09-23T05:03:33.625Z,1008.89
2022-09-23T05:04:33.610Z,1008.90
2022-09-23T05:05:33.596Z,1008.92
2022-09-23T05:06:33.598Z,1008.89
2022-09-23T05:07:33.590Z,1008.91
2022-09-23T05:08:33.570Z,1008.91
2022-09-23T05:09:33.566Z,1008.88
2022-09-23T05:10:33.554Z,1008.89
2022-09-23T05:11:33.528Z,1008.90
2022-09-23T05:12:33.535Z,1008.88
2022-09-23T05:13:33.678Z,1008.88
2022-09-23T05:14:33.506Z,1008.95
2022-09-23T05:15:33.492Z,1008.92
2022-09-23T05:16:33.524Z,1008.93
2022-09-23T05:17:33.471Z,1008.90
2022-09-23T05:18:33.464Z,1008.89
2022-09-23T05:19:33.456Z,1008.80
2022-09-23T05:20:33.459Z,1008.88
2022-09-23T05:21:33.436Z,1008.81
2022-09-23T05:22:33.420Z,1008.83
2022-09-23T05:23:33.406Z,1008.80
2022-09-23T05:24:33.439Z,1008.78
2022-09-23T05:25:38.103Z,1008.82
2022-09-23T05:26:34.372Z,1008.82
2022-09-23T05:27:33.361Z,1008.82
2022-09-23T05:28:33.361Z,1008.84
2022-09-23T05:29:33.358Z,1008.85
2022-09-23T05:30:33.349Z,1008.87
2022-09-23T05:31:33.366Z,1008.89
2022-09-23T05:32:33.316Z,1008.88
2022-09-23T05:33:33.302Z,1008.88
2022-09-23T05:34:33.297Z,1008.87
2022-09-23T05:35:33.280Z,1008.90
2022-09-23T05:36:37.877Z,1008.90
2022-09-23T05:37:34.259Z,1008.92
2022-09-23T05:38:33.258Z,1008.93
2022-09-23T05:39:33.249Z,1008.93
2022-09-23T05:40:33.333Z,1008.94
2022-09-23T05:41:33.231Z,1008.93
2022-09-23T05:42:33.213Z,1008.88
2022-09-23T05:43:33.201Z,1008.80
2022-09-23T05:44:33.211Z,1008.82
2022-09-23T05:45:33.171Z,1008.78
2022-09-23T05:46:33.286Z,1008.83
2022-09-23T05:47:33.157Z,1008.80
2022-09-23T05:48:33.148Z,1008.82
2022-09-23T05:49:55.173Z,1008.83
2022-09-23T05:50:34.120Z,1008.82
2022-09-23T05:51:33.117Z,1008.78
2022-09-23T05:52:33.099Z,1008.81
2022-09-23T05:53:33.089Z,1008.81
2022-09-23T05:54:33.085Z,1008.80
2022-09-23T05:55:33.070Z,1008.82
2022-09-23T05:56:33.073Z,1008.85
2022-09-23T05:57:33.053Z,1008.83
2022-09-23T05:58:33.040Z,1008.86
2022-09-23T05:59:33.026Z,1008.78
2022-09-23T06:00:33.007Z,1008.79
2022-09-23T06:01:33.055Z,1008.79
2022-09-23T06:02:33.008Z,1008.81
2022-09-23T06:03:32.981Z,1008.78
2022-09-23T06:04:32.982Z,1008.78
2022-09-23T06:05:32.981Z,1008.77
2022-09-23T06:06:32.954Z,1008.78
2022-09-23T06:07:32.935Z,1008.77
2022-09-23T06:08:32.935Z,1008.81
2022-09-23T06:09:36.366Z,1008.79
2022-09-23T06:10:32.929Z,1008.78
2022-09-23T06:11:32.904Z,1008.77
2022-09-23T06:12:32.902Z,1008.75
2022-09-23T06:13:32.882Z,1008.76
2022-09-23T06:14:32.862Z,1008.74
2022-09-23T06:15:33.105Z,1008.77
2022-09-23T06:16:32.939Z,1008.76
2022-09-23T06:17:32.836Z,1008.74
2022-09-23T06:18:32.821Z,1008.72
2022-09-23T06:19:32.818Z,1008.70
2022-09-23T06:20:32.830Z,1008.62
2022-09-23T06:21:32.790Z,1008.66
2022-09-23T06:22:35.443Z,1008.67
2022-09-23T06:23:32.803Z,1008.72
2022-09-23T06:24:32.980Z,1008.72
2022-09-23T06:25:32.756Z,1008.71
2022-09-23T06:26:32.756Z,1008.70
2022-09-23T06:27:32.721Z,1008.70
2022-09-23T06:28:32.723Z,1008.65
2022-09-23T06:29:32.715Z,1008.65
2022-09-23T06:30:32.712Z,1008.69
2022-09-23T06:31:32.766Z,1008.73
2022-09-23T06:32:32.667Z,1008.73
2022-09-23T06:33:36.996Z,1008.75
2022-09-23T06:34:42.471Z,1008.71
2022-09-23T06:35:33.638Z,1008.75
2022-09-23T06:36:42.228Z,1008.79
2022-09-23T06:37:33.626Z,1008.81
2022-09-23T06:38:32.614Z,1008.82
2022-09-23T06:39:32.660Z,1008.83
2022-09-23T06:40:32.695Z,1008.82
2022-09-23T06:41:32.585Z,1008.78
2022-09-23T06:42:32.589Z,1008.82
2022-09-23T06:43:32.554Z,1008.79
2022-09-23T06:44:32.541Z,1008.81
2022-09-23T06:45:32.532Z,1008.84
2022-09-23T06:46:32.636Z,1008.83
2022-09-23T06:47:32.510Z,1008.85
2022-09-23T06:48:32.511Z,1008.82
2022-09-23T06:49:32.500Z,1008.88
2022-09-23T06:50:32.488Z,1008.86
2022-09-23T06:51:32.479Z,1008.87
2022-09-23T06:52:32.486Z,1008.80
2022-09-23T06:53:32.466Z,1008.81
2022-09-23T06:54:32.452Z,1008.82
2022-09-23T06:55:32.453Z,1008.79
2022-09-23T06:56:37.774Z,1008.82
2022-09-23T06:57:33.433Z,1008.84
2022-09-23T06:58:32.426Z,1008.83
2022-09-23T06:59:32.393Z,1008.79
2022-09-23T07:00:32.398Z,1008.81
2022-09-23T07:01:32.438Z,1008.79
2022-09-23T07:02:32.455Z,1008.83
2022-09-23T07:03:32.348Z,1008.87
2022-09-23T07:04:32.323Z,1008.85
2022-09-23T07:05:32.322Z,1008.83
2022-09-23T07:06:32.321Z,1008.81
2022-09-23T07:07:32.313Z,1008.82
2022-09-23T07:08:32.297Z,1008.82
2022-09-23T07:09:32.301Z,1008.78
2022-09-23T07:10:32.265Z,1008.74
2022-09-23T07:11:32.262Z,1008.74
2022-09-23T07:12:32.484Z,1008.78
2022-09-23T07:13:32.243Z,1008.78
2022-09-23T07:14:32.230Z,1008.72
2022-09-23T07:15:32.270Z,1008.76
2022-09-23T07:16:32.211Z,1008.75
2022-09-23T07:17:32.717Z,1008.76
2022-09-23T07:18:36.412Z,1008.77
2022-09-23T07:19:32.321Z,1008.79
2022-09-23T07:20:32.163Z,1008.77
2022-09-23T07:21:32.157Z,1008.78
2022-09-23T07:22:32.767Z,1008.78
2022-09-23T07:23:32.140Z,1008.78
2022-09-23T07:24:32.145Z,1008.71
2022-09-23T07:25:32.101Z,1008.72
2022-09-23T07:26:32.123Z,1008.72
2022-09-23T07:27:32.104Z,1008.72
2022-09-23T07:28:32.080Z,1008.67
2022-09-23T07:29:42.561Z,1008.69
2022-09-23T07:30:33.084Z,1008.71
2022-09-23T07:31:38.577Z,1008.72
2022-09-23T07:32:43.772Z,1008.76
2022-09-23T07:33:33.662Z,1008.74
2022-09-23T07:34:32.060Z,1008.78
2022-09-23T07:35:32.011Z,1008.70
2022-09-23T07:36:31.989Z,1008.68
2022-09-23T07:37:31.979Z,1008.72
2022-09-23T07:38:31.991Z,1008.67
2022-09-23T07:39:31.969Z,1008.71
2022-09-23T07:40:32.050Z,1008.71
2022-09-23T07:41:31.954Z,1008.70
2022-09-23T07:42:31.946Z,1008.69
2022-09-23T07:43:31.916Z,1008.67
2022-09-23T07:44:31.932Z,1008.69
2022-09-23T07:45:31.899Z,1008.71
2022-09-23T07:46:31.974Z,1008.67
2022-09-23T07:47:31.901Z,1008.71
2022-09-23T07:48:34.302Z,1008.70
2022-09-23T07:49:31.848Z,1008.63
2022-09-23T07:50:31.840Z,1008.67
2022-09-23T07:51:35.737Z,1008.64
2022-09-23T07:52:31.831Z,1008.68
2022-09-23T07:53:31.828Z,1008.66
2022-09-23T07:54:31.803Z,1008.66
2022-09-23T07:55:31.795Z,1008.65
2022-09-23T07:56:31.795Z,1008.64
2022-09-23T07:57:31.762Z,1008.56
2022-09-23T07:58:31.763Z,1008.56
2022-09-23T07:59:31.743Z,1008.55
2022-09-23T08:00:31.736Z,1008.58
2022-09-23T08:01:31.804Z,1008.63
2022-09-23T08:02:31.767Z,1008.58
2022-09-23T08:03:31.702Z,1008.60
2022-09-23T08:04:31.717Z,1008.60
2022-09-23T08:05:31.699Z,1008.61
2022-09-23T08:06:31.706Z,1008.61
2022-09-23T08:07:31.662Z,1008.61
2022-09-23T08:08:31.650Z,1008.64
2022-09-23T08:09:31.630Z,1008.63
2022-09-23T08:10:31.641Z,1008.59
2022-09-23T08:11:31.618Z,1008.61
2022-09-23T08:12:31.615Z,1008.56
2022-09-23T08:13:31.625Z,1008.50
2022-09-23T08:14:31.580Z,1008.47
2022-09-23T08:15:31.608Z,1008.47
2022-09-23T08:16:31.605Z,1008.46
2022-09-23T08:17:31.573Z,1008.51
2022-09-23T08:18:31.559Z,1008.48
2022-09-23T08:19:31.611Z,1008.46
2022-09-23T08:20:31.531Z,1008.44
2022-09-23T08:21:32.118Z,1008.44
2022-09-23T08:22:31.503Z,1008.47
2022-09-23T08:23:31.485Z,1008.45
2022-09-23T08:24:31.482Z,1008.46
2022-09-23T08:25:34.286Z,1008.43
2022-09-23T08:26:31.463Z,1008.44
2022-09-23T08:27:31.467Z,1008.43
2022-09-23T08:28:31.441Z,1008.45
2022-09-23T08:29:31.431Z,1008.46
2022-09-23T08:30:31.418Z,1008.44
2022-09-23T08:31:31.394Z,1008.46
2022-09-23T08:32:31.404Z,1008.45
2022-09-23T08:33:31.376Z,1008.40
2022-09-23T08:34:31.363Z,1008.41
2022-09-23T08:35:31.379Z,1008.41
2022-09-23T08:36:31.361Z,1008.40
2022-09-23T08:37:31.340Z,1008.38
2022-09-23T08:38:31.321Z,1008.34
2022-09-23T08:39:31.317Z,1008.39
2022-09-23T08:40:31.336Z,1008.39
2022-09-23T08:41:31.297Z,1008.40
2022-09-23T08:42:31.280Z,1008.41
2022-09-23T08:43:31.267Z,1008.38
2022-09-23T08:44:31.264Z,1008.41
2022-09-23T08:45:31.239Z,1008.35
2022-09-23T08:46:31.616Z,1008.39
2022-09-23T08:47:31.453Z,1008.42
2022-09-23T08:48:31.212Z,1008.41
2022-09-23T08:49:31.209Z,1008.41
2022-09-23T08:50:31.291Z,1008.35
2022-09-23T08:51:31.201Z,1008.33
2022-09-23T08:52:31.187Z,1008.38
2022-09-23T08:53:31.168Z,1008.38
2022-09-23T08:54:31.154Z,1008.31
2022-09-23T08:55:31.135Z,1008.31
2022-09-23T08:56:31.150Z,1008.34
2022-09-23T08:57:31.124Z,1008.37
2022-09-23T08:58:31.108Z,1008.39
2022-09-23T08:59:31.120Z,1008.41
2022-09-23T09:00:31.068Z,1008.39
2022-09-23T09:01:31.396Z,1008.37
2022-09-23T09:02:31.079Z,1008.32
2022-09-23T09:03:31.054Z,1008.33
2022-09-23T09:04:31.045Z,1008.35
2022-09-23T09:05:31.033Z,1008.34
2022-09-23T09:06:31.029Z,1008.31
2022-09-23T09:07:38.519Z,1008.31
2022-09-23T09:08:31.992Z,1008.31
2022-09-23T09:09:31.007Z,1008.29
2022-09-23T09:10:30.978Z,1008.34
2022-09-23T09:11:30.979Z,1008.31
2022-09-23T09:12:30.959Z,1008.30
2022-09-23T09:13:30.960Z,1008.26
2022-09-23T09:14:30.946Z,1008.30
2022-09-23T09:15:30.969Z,1008.28
2022-09-23T09:16:55.343Z,1008.21
2022-09-23T09:17:35.035Z,1008.24
2022-09-23T16:25:11.076Z,1005.30
2022-09-23T16:26:09.423Z,1005.32
2022-09-23T16:27:09.656Z,1005.33
2022-09-23T16:28:09.380Z,1005.32
2022-09-23T16:29:09.456Z,1005.37
2022-09-23T16:30:09.373Z,1005.38
2022-09-23T16:31:09.360Z,1005.37
2022-09-23T16:32:09.380Z,1005.32
2022-09-23T16:33:09.341Z,1005.34
2022-09-23T16:34:09.326Z,1005.34
2022-09-23T16:35:09.341Z,1005.35
2022-09-23T16:36:09.302Z,1005.31
2022-09-23T16:37:09.312Z,1005.39
2022-09-23T16:38:09.262Z,1005.35
2022-09-23T16:39:09.242Z,1005.35
2022-09-23T16:40:09.343Z,1005.35
2022-09-23T16:41:09.347Z,1005.36
2022-09-23T16:42:09.252Z,1005.37
2022-09-23T16:43:09.243Z,1005.35
2022-09-23T16:44:09.216Z,1005.34
2022-09-23T16:45:09.241Z,1005.34
2022-09-23T16:46:09.298Z,1005.34
2022-09-23T16:47:09.193Z,1005.36
2022-09-23T16:48:09.162Z,1005.37
2022-09-23T16:49:09.164Z,1005.38
2022-09-23T16:50:09.138Z,1005.38
2022-09-23T16:51:09.117Z,1005.38
2022-09-23T16:52:09.113Z,1005.37
2022-09-23T16:53:09.179Z,1005.40
2022-09-23T16:54:09.131Z,1005.35
2022-09-23T16:55:09.217Z,1005.42
2022-09-23T16:56:09.173Z,1005.38
2022-09-23T16:57:09.079Z,1005.42
2022-09-23T16:58:09.046Z,1005.45
2022-09-23T16:59:09.143Z,1005.41
2022-09-23T17:00:09.032Z,1005.43
2022-09-23T17:01:09.130Z,1005.40
2022-09-23T17:02:09.055Z,1005.45
2022-09-23T17:03:09.010Z,1005.43
2022-09-23T17:04:09.031Z,1005.41
2022-09-23T17:05:08.969Z,1005.46
2022-09-23T17:06:08.974Z,1005.44
2022-09-23T17:07:08.965Z,1005.45
2022-09-23T17:08:08.936Z,1005.44
2022-09-23T17:09:08.942Z,1005.40
2022-09-23T17:10:08.919Z,1005.41
2022-09-23T17:11:08.904Z,1005.40
2022-09-23T17:12:08.896Z,1005.37
2022-09-23T17:13:08.892Z,1005.38
2022-09-23T17:14:08.913Z,1005.40
2022-09-23T17:15:08.848Z,1005.38
2022-09-23T17:16:08.904Z,1005.41
2022-09-23T17:17:08.842Z,1005.37
2022-09-23T17:18:08.837Z,1005.41
2022-09-23T17:19:08.878Z,1005.44
2022-09-23T17:20:08.796Z,1005.39
2022-09-23T17:21:08.795Z,1005.40
2022-09-23T17:22:08.776Z,1005.41
2022-09-23T17:23:08.764Z,1005.38
2022-09-23T17:24:08.774Z,1005.39
2022-09-23T17:25:08.786Z,1005.39
2022-09-23T17:26:08.726Z,1005.39
2022-09-23T17:27:09.004Z,1005.40
2022-09-23T17:28:08.712Z,1005.38
2022-09-23T17:29:08.695Z,1005.42
2022-09-23T17:30:08.709Z,1005.45
2022-09-23T17:31:08.849Z,1005.43
2022-09-23T17:32:08.710Z,1005.42
2022-09-23T17:33:08.661Z,1005.40
2022-09-23T17:34:08.704Z,1005.40
2022-09-23T17:35:08.621Z,1005.38
2022-09-23T17:36:08.627Z,1005.42
2022-09-23T17:37:08.641Z,1005.39
2022-09-23T17:38:08.972Z,1005.39
2022-09-23T17:39:08.661Z,1005.40
2022-09-23T17:40:08.658Z,1005.40
2022-09-23T17:41:08.563Z,1005.42
2022-09-23T17:42:08.589Z,1005.43
2022-09-23T17:43:08.555Z,1005.42
2022-09-23T17:44:08.547Z,1005.44
2022-09-23T17:45:08.649Z,1005.39
2022-09-23T17:46:08.633Z,1005.40
2022-09-23T17:47:08.556Z,1005.41
2022-09-23T17:48:08.502Z,1005.39
2022-09-23T17:49:08.636Z,1005.36
2022-09-23T17:50:08.470Z,1005.35
2022-09-23T17:51:08.464Z,1005.35
2022-09-23T17:52:08.460Z,1005.36
2022-09-23T17:53:08.440Z,1005.33
2022-09-23T17:54:08.448Z,1005.34
2022-09-23T17:55:08.436Z,1005.34
2022-09-23T17:56:08.430Z,1005.32
2022-09-23T17:57:08.634Z,1005.34
2022-09-23T17:58:08.438Z,1005.31
2022-09-23T17:59:08.379Z,1005.32
2022-09-23T18:00:08.424Z,1005.33
2022-09-23T18:01:08.410Z,1005.38
2022-09-23T18:02:10.548Z,1005.37
2022-09-23T18:03:08.346Z,1005.36
2022-09-23T18:04:08.345Z,1005.35
2022-09-23T18:05:08.320Z,1005.36
2022-09-23T18:06:08.305Z,1005.36
2022-09-23T18:07:08.303Z,1005.35
2022-09-23T18:08:08.283Z,1005.32
2022-09-23T18:09:08.350Z,1005.37
2022-09-23T18:10:08.266Z,1005.37
2022-09-23T18:11:08.251Z,1005.29
2022-09-23T18:12:08.253Z,1005.28
2022-09-23T18:13:08.219Z,1005.32
2022-09-23T18:14:08.225Z,1005.30
2022-09-23T18:15:08.211Z,1005.33
2022-09-23T18:16:08.387Z,1005.27
2022-09-23T18:17:08.200Z,1005.27
2022-09-23T18:18:08.172Z,1005.26
2022-09-23T18:19:08.222Z,1005.28
2022-09-23T18:20:08.147Z,1005.29
2022-09-23T18:21:08.159Z,1005.26
2022-09-23T18:22:08.125Z,1005.29
2022-09-23T18:23:08.333Z,1005.30
2022-09-23T18:24:31.412Z,1005.28
2022-09-23T18:25:28.497Z,1005.30
2022-09-23T18:26:09.097Z,1005.31
2022-09-23T18:27:08.085Z,1005.30
2022-09-23T18:28:08.058Z,1005.32
2022-09-23T18:29:08.445Z,1005.32
2022-09-23T18:30:08.052Z,1005.32
2022-09-23T18:31:08.083Z,1005.32
2022-09-23T18:32:11.080Z,1005.33
2022-09-23T18:33:09.009Z,1005.29
2022-09-23T18:34:08.317Z,1005.33
2022-09-23T18:35:07.980Z,1005.33
2022-09-23T18:36:07.973Z,1005.35
2022-09-23T18:37:15.284Z,1005.34
2022-09-23T18:38:08.932Z,1005.34
2022-09-23T18:39:07.965Z,1005.36
2022-09-23T18:40:12.523Z,1005.37
2022-09-23T18:41:08.927Z,1005.41
2022-09-23T18:42:07.919Z,1005.39
2022-09-23T18:43:07.912Z,1005.40
2022-09-23T18:44:07.921Z,1005.37
2022-09-23T18:45:08.335Z,1005.37
2022-09-23T18:46:07.938Z,1005.38
2022-09-23T18:47:07.869Z,1005.38
2022-09-23T18:48:07.874Z,1005.37
2022-09-23T18:49:07.863Z,1005.36
2022-09-23T18:50:07.818Z,1005.37
2022-09-23T18:51:07.783Z,1005.32
2022-09-23T18:52:07.776Z,1005.37
2022-09-23T18:53:07.840Z,1005.33
2022-09-23T18:54:07.830Z,1005.35
2022-09-23T18:55:07.744Z,1005.33
2022-09-23T18:56:07.733Z,1005.39
2022-09-23T18:57:07.845Z,1005.40
2022-09-23T18:58:07.744Z,1005.43
2022-09-23T18:59:07.852Z,1005.41
2022-09-23T19:00:07.796Z,1005.41
2022-09-23T19:01:07.809Z,1005.38
2022-09-23T19:02:07.893Z,1005.41
2022-09-23T19:03:07.695Z,1005.40
2022-09-23T19:04:07.736Z,1005.38
2022-09-23T19:05:07.657Z,1005.42
2022-09-23T19:06:07.667Z,1005.38
2022-09-23T19:07:07.655Z,1005.37
2022-09-23T19:08:07.635Z,1005.40
2022-09-23T19:09:07.611Z,1005.37
2022-09-23T19:10:07.616Z,1005.37
2022-09-23T19:11:07.609Z,1005.32
2022-09-23T19:12:07.570Z,1005.33